createdAt,value
2019-04-29T00:00:01.445Z,9.27
2019-04-29T00:02:35.610Z,8.50
2019-04-29T00:05:07.494Z,8.40
2019-04-29T00:07:38.402Z,9.33
2019-04-29T00:10:11.281Z,10.57
2019-04-29T00:12:42.244Z,9.80
2019-04-29T00:15:17.592Z,8.07
2019-04-29T00:17:53.100Z,8.93
2019-04-29T00:20:28.042Z,8.30
2019-04-29T00:22:58.627Z,8.23
2019-04-29T00:25:29.517Z,8.17
2019-04-29T00:28:00.490Z,8.63
2019-04-29T00:30:31.407Z,8.20
2019-04-29T00:33:02.144Z,8.00
2019-04-29T00:35:33.391Z,7.23
2019-04-29T00:38:12.094Z,7.70
2019-04-29T00:40:47.568Z,8.57
2019-04-29T00:43:20.168Z,6.90
2019-04-29T00:45:50.820Z,7.97
2019-04-29T00:48:21.679Z,7.10
2019-04-29T00:50:52.683Z,6.50
2019-04-29T00:53:23.733Z,6.03
2019-04-29T00:55:54.403Z,6.67
2019-04-29T00:58:25.691Z,7.07
2019-04-29T01:00:56.706Z,5.60
2019-04-29T01:03:27.466Z,6.70
2019-04-29T01:05:58.193Z,7.00
2019-04-29T01:08:28.950Z,6.63
2019-04-29T01:10:59.570Z,7.83
2019-04-29T01:13:30.400Z,7.60
2019-04-29T01:16:01.338Z,5.70
2019-04-29T01:18:31.957Z,6.63
2019-04-29T01:21:04.003Z,6.90
2019-04-29T01:23:34.614Z,6.37
2019-04-29T01:26:22.516Z,6.40
2019-04-29T01:28:55.353Z,7.10
2019-04-29T01:31:27.646Z,6.47
2019-04-29T01:34:00.127Z,6.73
2019-04-29T01:36:34.093Z,5.83
2019-04-29T01:39:06.467Z,5.40
2019-04-29T01:41:45.574Z,6.20
2019-04-29T01:44:18.294Z,6.43
2019-04-29T01:46:50.353Z,4.90
2019-04-29T01:49:21.112Z,5.57
2019-04-29T01:51:52.795Z,6.13
2019-04-29T01:54:23.466Z,6.23
2019-04-29T01:56:54.239Z,4.97
2019-04-29T01:59:24.900Z,5.83
2019-04-29T02:01:55.936Z,5.33
2019-04-29T02:04:26.838Z,5.37
2019-04-29T02:06:57.402Z,5.60
2019-04-29T02:09:35.994Z,6.30
2019-04-29T02:12:06.931Z,5.60
2019-04-29T02:14:38.727Z,6.00
2019-04-29T02:17:10.114Z,5.17
2019-04-29T02:19:41.028Z,5.47
2019-04-29T02:22:16.101Z,5.60
2019-04-29T02:24:55.612Z,5.30
2019-04-29T02:27:26.278Z,6.53
2019-04-29T02:29:57.138Z,4.80
2019-04-29T02:32:27.911Z,4.87
2019-04-29T02:34:58.611Z,5.97
2019-04-29T02:37:30.938Z,5.10
2019-04-29T02:40:03.643Z,4.80
2019-04-29T02:42:38.739Z,6.47
2019-04-29T02:45:11.584Z,5.70
2019-04-29T02:47:42.606Z,5.80
2019-04-29T02:50:14.402Z,5.93
2019-04-29T02:52:45.139Z,5.90
2019-04-29T02:55:18.025Z,6.33
2019-04-29T02:57:50.536Z,6.17
2019-04-29T03:04:06.684Z,6.00
2019-04-29T03:06:37.421Z,5.43
2019-04-29T03:09:08.365Z,7.20
2019-04-29T03:11:39.130Z,5.93
2019-04-29T03:14:09.842Z,7.63
2019-04-29T03:16:40.458Z,5.53
2019-04-29T03:19:28.163Z,6.80
2019-04-29T03:22:00.427Z,7.50
2019-04-29T03:24:30.985Z,7.53
2019-04-29T03:27:01.642Z,8.17
2019-04-29T03:29:32.523Z,8.20
2019-04-29T03:32:03.301Z,8.67
2019-04-29T03:34:34.191Z,7.87
2019-04-29T03:37:04.889Z,7.20
2019-04-29T03:39:35.758Z,8.87
2019-04-29T03:42:07.533Z,8.13
2019-04-29T03:44:38.656Z,7.07
2019-04-29T03:47:09.367Z,9.13
